sensor_id;sensor_type;location;lat;lon;timestamp;P1;durP1;ratioP1;P2;durP2;ratioP2
68700;SDS011;55682;51.114;5.882;2023-08-07T00:00:42;3.12;;;2.70;;
68700;SDS011;55682;51.114;5.882;2023-08-07T00:03:08;2.56;;;2.25;;
68700;SDS011;55682;51.114;5.882;2023-08-07T00:05:34;3.03;;;2.59;;
68700;SDS011;55682;51.114;5.882;2023-08-07T00:08:00;3.37;;;2.76;;
68700;SDS011;55682;51.114;5.882;2023-08-07T00:10:25;3.70;;;2.98;;
68700;SDS011;55682;51.114;5.882;2023-08-07T00:12:51;3.30;;;2.67;;
68700;SDS011;55682;51.114;5.882;2023-08-07T00:15:17;3.14;;;2.60;;
68700;SDS011;55682;51.114;5.882;2023-08-07T00:17:43;2.90;;;2.44;;
68700;SDS011;55682;51.114;5.882;2023-08-07T00:20:09;3.21;;;2.72;;
68700;SDS011;55682;51.114;5.882;2023-08-07T00:22:35;3.19;;;2.69;;
68700;SDS011;55682;51.114;5.882;2023-08-07T00:25:00;3.21;;;2.72;;
68700;SDS011;55682;51.114;5.882;2023-08-07T00:27:26;3.30;;;2.75;;
68700;SDS011;55682;51.114;5.882;2023-08-07T00:29:51;3.05;;;2.57;;
68700;SDS011;55682;51.114;5.882;2023-08-07T00:32:17;3.30;;;2.76;;
68700;SDS011;55682;51.114;5.882;2023-08-07T00:34:43;3.07;;;2.59;;
68700;SDS011;55682;51.114;5.882;2023-08-07T00:37:08;3.22;;;2.72;;
68700;SDS011;55682;51.114;5.882;2023-08-07T00:39:34;3.11;;;2.65;;
68700;SDS011;55682;51.114;5.882;2023-08-07T00:41:59;3.21;;;2.70;;
68700;SDS011;55682;51.114;5.882;2023-08-07T00:44:25;3.22;;;2.74;;
68700;SDS011;55682;51.114;5.882;2023-08-07T00:46:51;3.05;;;2.59;;
68700;SDS011;55682;51.114;5.882;2023-08-07T00:49:17;2.85;;;2.46;;
68700;SDS011;55682;51.114;5.882;2023-08-07T00:51:45;2.70;;;2.31;;
68700;SDS011;55682;51.114;5.882;2023-08-07T00:54:12;3.18;;;2.66;;
68700;SDS011;55682;51.114;5.882;2023-08-07T00:56:43;3.06;;;2.55;;
68700;SDS011;55682;51.114;5.882;2023-08-07T00:59:10;3.25;;;2.72;;
68700;SDS011;55682;51.114;5.882;2023-08-07T01:01:36;2.98;;;2.51;;
68700;SDS011;55682;51.114;5.882;2023-08-07T01:04:02;2.74;;;2.35;;
68700;SDS011;55682;51.114;5.882;2023-08-07T01:06:28;2.94;;;2.53;;
68700;SDS011;55682;51.114;5.882;2023-08-07T01:08:53;2.78;;;2.32;;
68700;SDS011;55682;51.114;5.882;2023-08-07T01:16:52;2.75;;;2.38;;
68700;SDS011;55682;51.114;5.882;2023-08-07T01:19:26;2.93;;;2.57;;
68700;SDS011;55682;51.114;5.882;2023-08-07T01:24:37;2.62;;;2.37;;
68700;SDS011;55682;51.114;5.882;2023-08-07T01:30:29;2.63;;;2.34;;
68700;SDS011;55682;51.114;5.882;2023-08-07T01:35:29;2.83;;;2.42;;
68700;SDS011;55682;51.114;5.882;2023-08-07T01:38:01;2.78;;;2.41;;
68700;SDS011;55682;51.114;5.882;2023-08-07T01:40:28;2.90;;;2.55;;
68700;SDS011;55682;51.114;5.882;2023-08-07T01:42:55;2.89;;;2.53;;
68700;SDS011;55682;51.114;5.882;2023-08-07T01:45:22;2.85;;;2.51;;
68700;SDS011;55682;51.114;5.882;2023-08-07T01:47:52;2.95;;;2.57;;
68700;SDS011;55682;51.114;5.882;2023-08-07T01:50:18;2.98;;;2.59;;
68700;SDS011;55682;51.114;5.882;2023-08-07T01:52:46;2.58;;;2.27;;
68700;SDS011;55682;51.114;5.882;2023-08-07T01:55:15;2.75;;;2.47;;
68700;SDS011;55682;51.114;5.882;2023-08-07T01:57:49;2.81;;;2.55;;
68700;SDS011;55682;51.114;5.882;2023-08-07T02:00:14;2.90;;;2.62;;
68700;SDS011;55682;51.114;5.882;2023-08-07T02:02:40;3.36;;;2.94;;
68700;SDS011;55682;51.114;5.882;2023-08-07T02:05:06;2.93;;;2.58;;
68700;SDS011;55682;51.114;5.882;2023-08-07T02:07:32;2.92;;;2.56;;
68700;SDS011;55682;51.114;5.882;2023-08-07T02:09:59;3.01;;;2.61;;
68700;SDS011;55682;51.114;5.882;2023-08-07T02:12:25;2.96;;;2.68;;
68700;SDS011;55682;51.114;5.882;2023-08-07T02:14:51;3.03;;;2.79;;
68700;SDS011;55682;51.114;5.882;2023-08-07T02:17:17;2.91;;;2.67;;
68700;SDS011;55682;51.114;5.882;2023-08-07T02:19:43;3.08;;;2.76;;
68700;SDS011;55682;51.114;5.882;2023-08-07T02:22:09;3.25;;;2.86;;
68700;SDS011;55682;51.114;5.882;2023-08-07T02:24:34;2.83;;;2.47;;
68700;SDS011;55682;51.114;5.882;2023-08-07T02:27:00;3.13;;;2.74;;
68700;SDS011;55682;51.114;5.882;2023-08-07T02:29:25;2.97;;;2.57;;
68700;SDS011;55682;51.114;5.882;2023-08-07T02:31:51;3.30;;;2.84;;
68700;SDS011;55682;51.114;5.882;2023-08-07T02:34:16;2.81;;;2.46;;
68700;SDS011;55682;51.114;5.882;2023-08-07T02:36:42;2.80;;;2.42;;
68700;SDS011;55682;51.114;5.882;2023-08-07T02:39:08;2.81;;;2.47;;
68700;SDS011;55682;51.114;5.882;2023-08-07T02:41:33;2.61;;;2.35;;
68700;SDS011;55682;51.114;5.882;2023-08-07T02:44:00;2.59;;;2.35;;
68700;SDS011;55682;51.114;5.882;2023-08-07T02:46:25;2.87;;;2.55;;
68700;SDS011;55682;51.114;5.882;2023-08-07T02:48:51;2.92;;;2.57;;
68700;SDS011;55682;51.114;5.882;2023-08-07T02:51:18;2.57;;;2.32;;
68700;SDS011;55682;51.114;5.882;2023-08-07T02:53:44;2.64;;;2.39;;
68700;SDS011;55682;51.114;5.882;2023-08-07T02:56:10;2.64;;;2.37;;
68700;SDS011;55682;51.114;5.882;2023-08-07T02:58:35;2.42;;;2.17;;
68700;SDS011;55682;51.114;5.882;2023-08-07T03:01:04;2.44;;;2.17;;
68700;SDS011;55682;51.114;5.882;2023-08-07T03:03:33;2.63;;;2.31;;
68700;SDS011;55682;51.114;5.882;2023-08-07T03:05:59;2.87;;;2.51;;
68700;SDS011;55682;51.114;5.882;2023-08-07T03:08:25;2.83;;;2.50;;
68700;SDS011;55682;51.114;5.882;2023-08-07T03:10:51;2.44;;;2.22;;
68700;SDS011;55682;51.114;5.882;2023-08-07T03:13:24;2.39;;;2.19;;
68700;SDS011;55682;51.114;5.882;2023-08-07T03:15:50;2.70;;;2.38;;
68700;SDS011;55682;51.114;5.882;2023-08-07T03:18:28;2.80;;;2.42;;
68700;SDS011;55682;51.114;5.882;2023-08-07T03:20:55;2.52;;;2.18;;
68700;SDS011;55682;51.114;5.882;2023-08-07T03:23:22;2.53;;;2.21;;
68700;SDS011;55682;51.114;5.882;2023-08-07T03:25:49;2.50;;;2.22;;
68700;SDS011;55682;51.114;5.882;2023-08-07T03:28:15;2.21;;;1.99;;
68700;SDS011;55682;51.114;5.882;2023-08-07T03:30:42;2.49;;;2.27;;
68700;SDS011;55682;51.114;5.882;2023-08-07T03:33:11;2.49;;;2.23;;
68700;SDS011;55682;51.114;5.882;2023-08-07T03:35:38;2.54;;;2.27;;
68700;SDS011;55682;51.114;5.882;2023-08-07T03:38:04;2.78;;;2.47;;
68700;SDS011;55682;51.114;5.882;2023-08-07T03:40:29;2.60;;;2.34;;
68700;SDS011;55682;51.114;5.882;2023-08-07T03:42:55;2.61;;;2.35;;
68700;SDS011;55682;51.114;5.882;2023-08-07T03:45:21;2.71;;;2.48;;
68700;SDS011;55682;51.114;5.882;2023-08-07T03:47:47;2.70;;;2.55;;
68700;SDS011;55682;51.114;5.882;2023-08-07T03:50:12;2.46;;;2.32;;
68700;SDS011;55682;51.114;5.882;2023-08-07T03:52:38;2.55;;;2.39;;
68700;SDS011;55682;51.114;5.882;2023-08-07T03:55:04;2.52;;;2.30;;
68700;SDS011;55682;51.114;5.882;2023-08-07T03:57:30;2.73;;;2.44;;
68700;SDS011;55682;51.114;5.882;2023-08-07T03:59:57;2.57;;;2.35;;
68700;SDS011;55682;51.114;5.882;2023-08-07T04:02:23;2.51;;;2.33;;
68700;SDS011;55682;51.114;5.882;2023-08-07T04:04:48;2.67;;;2.45;;
68700;SDS011;55682;51.114;5.882;2023-08-07T04:07:14;2.57;;;2.38;;
68700;SDS011;55682;51.114;5.882;2023-08-07T04:09:40;2.60;;;2.38;;
68700;SDS011;55682;51.114;5.882;2023-08-07T04:12:05;2.70;;;2.48;;
68700;SDS011;55682;51.114;5.882;2023-08-07T04:14:32;2.63;;;2.42;;
68700;SDS011;55682;51.114;5.882;2023-08-07T04:16:57;2.80;;;2.57;;
68700;SDS011;55682;51.114;5.882;2023-08-07T04:19:23;2.37;;;2.19;;
68700;SDS011;55682;51.114;5.882;2023-08-07T04:21:49;2.56;;;2.33;;
68700;SDS011;55682;51.114;5.882;2023-08-07T04:24:14;2.65;;;2.44;;
68700;SDS011;55682;51.114;5.882;2023-08-07T04:26:40;2.81;;;2.60;;
68700;SDS011;55682;51.114;5.882;2023-08-07T04:29:06;2.48;;;2.33;;
68700;SDS011;55682;51.114;5.882;2023-08-07T04:31:32;2.50;;;2.32;;
68700;SDS011;55682;51.114;5.882;2023-08-07T04:33:58;2.37;;;2.19;;
68700;SDS011;55682;51.114;5.882;2023-08-07T04:36:24;2.98;;;2.69;;
68700;SDS011;55682;51.114;5.882;2023-08-07T04:38:50;2.52;;;2.29;;
68700;SDS011;55682;51.114;5.882;2023-08-07T04:41:16;2.60;;;2.34;;
68700;SDS011;55682;51.114;5.882;2023-08-07T04:43:41;2.38;;;2.14;;
68700;SDS011;55682;51.114;5.882;2023-08-07T04:46:10;2.62;;;2.38;;
68700;SDS011;55682;51.114;5.882;2023-08-07T04:48:37;2.62;;;2.38;;
68700;SDS011;55682;51.114;5.882;2023-08-07T04:51:02;2.41;;;2.22;;
68700;SDS011;55682;51.114;5.882;2023-08-07T04:53:28;2.34;;;2.10;;
68700;SDS011;55682;51.114;5.882;2023-08-07T04:55:54;2.73;;;2.46;;
68700;SDS011;55682;51.114;5.882;2023-08-07T04:58:19;2.58;;;2.36;;
68700;SDS011;55682;51.114;5.882;2023-08-07T05:00:45;2.42;;;2.23;;
68700;SDS011;55682;51.114;5.882;2023-08-07T05:03:11;2.40;;;2.25;;
68700;SDS011;55682;51.114;5.882;2023-08-07T05:05:36;2.09;;;1.93;;
68700;SDS011;55682;51.114;5.882;2023-08-07T05:08:02;2.52;;;2.33;;
68700;SDS011;55682;51.114;5.882;2023-08-07T05:10:28;2.20;;;2.05;;
68700;SDS011;55682;51.114;5.882;2023-08-07T05:12:53;2.22;;;2.06;;
68700;SDS011;55682;51.114;5.882;2023-08-07T05:15:24;2.38;;;2.20;;
68700;SDS011;55682;51.114;5.882;2023-08-07T05:17:51;2.60;;;2.41;;
68700;SDS011;55682;51.114;5.882;2023-08-07T05:20:17;2.60;;;2.42;;
68700;SDS011;55682;51.114;5.882;2023-08-07T05:22:43;2.13;;;1.99;;
68700;SDS011;55682;51.114;5.882;2023-08-07T05:25:09;2.51;;;2.31;;
68700;SDS011;55682;51.114;5.882;2023-08-07T05:27:37;2.33;;;2.15;;
68700;SDS011;55682;51.114;5.882;2023-08-07T05:30:03;2.57;;;2.36;;
68700;SDS011;55682;51.114;5.882;2023-08-07T05:32:29;2.43;;;2.21;;
68700;SDS011;55682;51.114;5.882;2023-08-07T05:34:55;2.36;;;2.15;;
68700;SDS011;55682;51.114;5.882;2023-08-07T05:37:20;2.44;;;2.24;;
68700;SDS011;55682;51.114;5.882;2023-08-07T05:39:46;2.50;;;2.32;;
68700;SDS011;55682;51.114;5.882;2023-08-07T05:42:12;2.28;;;2.12;;
68700;SDS011;55682;51.114;5.882;2023-08-07T05:44:37;2.37;;;2.20;;
68700;SDS011;55682;51.114;5.882;2023-08-07T05:47:03;2.73;;;2.52;;
68700;SDS011;55682;51.114;5.882;2023-08-07T05:49:29;2.31;;;2.15;;
68700;SDS011;55682;51.114;5.882;2023-08-07T05:51:54;2.38;;;2.24;;
68700;SDS011;55682;51.114;5.882;2023-08-07T05:54:20;2.48;;;2.33;;
68700;SDS011;55682;51.114;5.882;2023-08-07T05:56:46;2.58;;;2.37;;
68700;SDS011;55682;51.114;5.882;2023-08-07T05:59:12;2.58;;;2.34;;
68700;SDS011;55682;51.114;5.882;2023-08-07T06:01:37;2.60;;;2.39;;
68700;SDS011;55682;51.114;5.882;2023-08-07T06:04:03;2.51;;;2.29;;
68700;SDS011;55682;51.114;5.882;2023-08-07T06:06:29;2.61;;;2.41;;
68700;SDS011;55682;51.114;5.882;2023-08-07T06:08:55;2.51;;;2.32;;
68700;SDS011;55682;51.114;5.882;2023-08-07T06:11:20;2.62;;;2.44;;
68700;SDS011;55682;51.114;5.882;2023-08-07T06:13:48;2.68;;;2.51;;
68700;SDS011;55682;51.114;5.882;2023-08-07T06:16:14;2.46;;;2.31;;
68700;SDS011;55682;51.114;5.882;2023-08-07T06:18:40;2.29;;;2.17;;
68700;SDS011;55682;51.114;5.882;2023-08-07T06:21:05;2.39;;;2.28;;
68700;SDS011;55682;51.114;5.882;2023-08-07T06:23:35;2.33;;;2.19;;
68700;SDS011;55682;51.114;5.882;2023-08-07T06:26:01;2.45;;;2.31;;
68700;SDS011;55682;51.114;5.882;2023-08-07T06:28:29;2.34;;;2.20;;
68700;SDS011;55682;51.114;5.882;2023-08-07T06:31:04;2.30;;;2.18;;
68700;SDS011;55682;51.114;5.882;2023-08-07T06:33:31;2.10;;;2.02;;
68700;SDS011;55682;51.114;5.882;2023-08-07T06:35:58;2.22;;;2.09;;
68700;SDS011;55682;51.114;5.882;2023-08-07T06:38:24;2.36;;;2.21;;
68700;SDS011;55682;51.114;5.882;2023-08-07T06:40:50;2.25;;;2.08;;
68700;SDS011;55682;51.114;5.882;2023-08-07T06:43:15;2.33;;;2.15;;
68700;SDS011;55682;51.114;5.882;2023-08-07T06:45:41;2.39;;;2.19;;
68700;SDS011;55682;51.114;5.882;2023-08-07T06:48:07;2.33;;;2.13;;
68700;SDS011;55682;51.114;5.882;2023-08-07T06:50:32;2.28;;;2.10;;
68700;SDS011;55682;51.114;5.882;2023-08-07T06:52:58;2.52;;;2.30;;
68700;SDS011;55682;51.114;5.882;2023-08-07T06:55:24;2.42;;;2.21;;
68700;SDS011;55682;51.114;5.882;2023-08-07T06:57:50;2.31;;;2.09;;
68700;SDS011;55682;51.114;5.882;2023-08-07T07:00:16;2.83;;;2.52;;
68700;SDS011;55682;51.114;5.882;2023-08-07T07:02:42;2.31;;;2.09;;
68700;SDS011;55682;51.114;5.882;2023-08-07T07:05:07;2.50;;;2.27;;
68700;SDS011;55682;51.114;5.882;2023-08-07T07:07:33;2.55;;;2.31;;
68700;SDS011;55682;51.114;5.882;2023-08-07T07:09:59;2.42;;;2.15;;
68700;SDS011;55682;51.114;5.882;2023-08-07T07:12:26;2.60;;;2.32;;
68700;SDS011;55682;51.114;5.882;2023-08-07T07:14:52;2.62;;;2.36;;
68700;SDS011;55682;51.114;5.882;2023-08-07T07:17:18;2.49;;;2.26;;
68700;SDS011;55682;51.114;5.882;2023-08-07T07:19:44;2.57;;;2.38;;
68700;SDS011;55682;51.114;5.882;2023-08-07T07:22:10;2.28;;;2.12;;
68700;SDS011;55682;51.114;5.882;2023-08-07T07:24:35;2.56;;;2.38;;
68700;SDS011;55682;51.114;5.882;2023-08-07T07:27:01;2.36;;;2.22;;
68700;SDS011;55682;51.114;5.882;2023-08-07T07:29:27;2.23;;;2.09;;
68700;SDS011;55682;51.114;5.882;2023-08-07T07:31:52;2.32;;;2.14;;
68700;SDS011;55682;51.114;5.882;2023-08-07T07:34:20;2.40;;;2.21;;
68700;SDS011;55682;51.114;5.882;2023-08-07T07:36:46;2.48;;;2.29;;
68700;SDS011;55682;51.114;5.882;2023-08-07T07:39:12;2.39;;;2.22;;
68700;SDS011;55682;51.114;5.882;2023-08-07T07:41:37;2.10;;;1.97;;
68700;SDS011;55682;51.114;5.882;2023-08-07T07:44:03;2.01;;;1.88;;
68700;SDS011;55682;51.114;5.882;2023-08-07T07:46:29;2.31;;;2.15;;
68700;SDS011;55682;51.114;5.882;2023-08-07T07:48:57;2.51;;;2.30;;
68700;SDS011;55682;51.114;5.882;2023-08-07T07:51:23;2.36;;;2.16;;
68700;SDS011;55682;51.114;5.882;2023-08-07T07:53:48;2.17;;;1.99;;
68700;SDS011;55682;51.114;5.882;2023-08-07T07:56:14;2.24;;;2.06;;
68700;SDS011;55682;51.114;5.882;2023-08-07T07:58:40;2.29;;;2.08;;
68700;SDS011;55682;51.114;5.882;2023-08-07T08:01:06;2.34;;;2.15;;
68700;SDS011;55682;51.114;5.882;2023-08-07T08:03:33;2.13;;;1.98;;
68700;SDS011;55682;51.114;5.882;2023-08-07T08:05:59;1.95;;;1.82;;
68700;SDS011;55682;51.114;5.882;2023-08-07T08:08:25;2.14;;;1.99;;
68700;SDS011;55682;51.114;5.882;2023-08-07T08:10:51;2.22;;;2.07;;
68700;SDS011;55682;51.114;5.882;2023-08-07T08:13:17;1.97;;;1.86;;
68700;SDS011;55682;51.114;5.882;2023-08-07T08:15:43;1.98;;;1.90;;
68700;SDS011;55682;51.114;5.882;2023-08-07T08:18:09;1.97;;;1.87;;
68700;SDS011;55682;51.114;5.882;2023-08-07T08:20:35;1.77;;;1.68;;
68700;SDS011;55682;51.114;5.882;2023-08-07T08:23:01;1.61;;;1.52;;
68700;SDS011;55682;51.114;5.882;2023-08-07T08:25:28;1.92;;;1.80;;
68700;SDS011;55682;51.114;5.882;2023-08-07T08:27:53;1.89;;;1.77;;
68700;SDS011;55682;51.114;5.882;2023-08-07T08:30:19;1.95;;;1.82;;
68700;SDS011;55682;51.114;5.882;2023-08-07T08:32:46;1.95;;;1.85;;
68700;SDS011;55682;51.114;5.882;2023-08-07T08:35:11;1.86;;;1.77;;
68700;SDS011;55682;51.114;5.882;2023-08-07T08:37:37;1.71;;;1.64;;
68700;SDS011;55682;51.114;5.882;2023-08-07T08:40:03;1.63;;;1.55;;
68700;SDS011;55682;51.114;5.882;2023-08-07T08:42:28;1.71;;;1.61;;
68700;SDS011;55682;51.114;5.882;2023-08-07T08:44:55;1.69;;;1.58;;
68700;SDS011;55682;51.114;5.882;2023-08-07T08:47:22;1.53;;;1.42;;
68700;SDS011;55682;51.114;5.882;2023-08-07T08:49:50;1.71;;;1.59;;
68700;SDS011;55682;51.114;5.882;2023-08-07T08:52:24;1.65;;;1.53;;
68700;SDS011;55682;51.114;5.882;2023-08-07T08:54:53;1.70;;;1.57;;
68700;SDS011;55682;51.114;5.882;2023-08-07T08:57:20;1.71;;;1.57;;
68700;SDS011;55682;51.114;5.882;2023-08-07T08:59:46;1.57;;;1.43;;
68700;SDS011;55682;51.114;5.882;2023-08-07T09:02:12;1.46;;;1.33;;
68700;SDS011;55682;51.114;5.882;2023-08-07T09:04:38;1.69;;;1.52;;
68700;SDS011;55682;51.114;5.882;2023-08-07T09:07:04;1.44;;;1.29;;
68700;SDS011;55682;51.114;5.882;2023-08-07T09:09:30;1.60;;;1.43;;
68700;SDS011;55682;51.114;5.882;2023-08-07T09:11:57;1.50;;;1.34;;
68700;SDS011;55682;51.114;5.882;2023-08-07T09:14:26;1.57;;;1.41;;
68700;SDS011;55682;51.114;5.882;2023-08-07T09:16:55;1.31;;;1.17;;
68700;SDS011;55682;51.114;5.882;2023-08-07T09:19:26;1.28;;;1.15;;
68700;SDS011;55682;51.114;5.882;2023-08-07T09:21:52;1.47;;;1.33;;
68700;SDS011;55682;51.114;5.882;2023-08-07T09:24:17;1.30;;;1.19;;
68700;SDS011;55682;51.114;5.882;2023-08-07T09:26:45;1.49;;;1.38;;
68700;SDS011;55682;51.114;5.882;2023-08-07T09:29:10;1.37;;;1.27;;
68700;SDS011;55682;51.114;5.882;2023-08-07T09:31:36;1.59;;;1.44;;
68700;SDS011;55682;51.114;5.882;2023-08-07T09:34:03;1.45;;;1.30;;
68700;SDS011;55682;51.114;5.882;2023-08-07T09:36:33;1.54;;;1.39;;
68700;SDS011;55682;51.114;5.882;2023-08-07T09:39:03;1.58;;;1.44;;
68700;SDS011;55682;51.114;5.882;2023-08-07T09:41:29;1.31;;;1.19;;
68700;SDS011;55682;51.114;5.882;2023-08-07T09:43:56;1.55;;;1.42;;
68700;SDS011;55682;51.114;5.882;2023-08-07T09:46:23;1.34;;;1.25;;
68700;SDS011;55682;51.114;5.882;2023-08-07T09:48:51;1.28;;;1.18;;
68700;SDS011;55682;51.114;5.882;2023-08-07T09:51:16;1.36;;;1.26;;
68700;SDS011;55682;51.114;5.882;2023-08-07T09:53:42;1.22;;;1.13;;
68700;SDS011;55682;51.114;5.882;2023-08-07T09:56:08;1.28;;;1.19;;
68700;SDS011;55682;51.114;5.882;2023-08-07T09:58:34;1.34;;;1.22;;
68700;SDS011;55682;51.114;5.882;2023-08-07T10:01:00;1.54;;;1.40;;
68700;SDS011;55682;51.114;5.882;2023-08-07T10:03:29;1.72;;;1.58;;
68700;SDS011;55682;51.114;5.882;2023-08-07T10:05:55;1.51;;;1.39;;
68700;SDS011;55682;51.114;5.882;2023-08-07T10:08:22;1.44;;;1.34;;
68700;SDS011;55682;51.114;5.882;2023-08-07T10:10:48;1.49;;;1.39;;
68700;SDS011;55682;51.114;5.882;2023-08-07T10:13:13;1.15;;;1.09;;
68700;SDS011;55682;51.114;5.882;2023-08-07T10:15:39;1.34;;;1.28;;
68700;SDS011;55682;51.114;5.882;2023-08-07T10:18:07;1.29;;;1.24;;
68700;SDS011;55682;51.114;5.882;2023-08-07T10:20:34;1.23;;;1.18;;
68700;SDS011;55682;51.114;5.882;2023-08-07T10:23:03;1.24;;;1.19;;
68700;SDS011;55682;51.114;5.882;2023-08-07T10:25:32;1.35;;;1.29;;
68700;SDS011;55682;51.114;5.882;2023-08-07T10:28:03;1.34;;;1.28;;
68700;SDS011;55682;51.114;5.882;2023-08-07T10:30:33;1.47;;;1.41;;
68700;SDS011;55682;51.114;5.882;2023-08-07T10:33:00;1.36;;;1.31;;
68700;SDS011;55682;51.114;5.882;2023-08-07T10:35:31;1.20;;;1.16;;
68700;SDS011;55682;51.114;5.882;2023-08-07T10:38:11;1.20;;;1.16;;
68700;SDS011;55682;51.114;5.882;2023-08-07T10:43:26;1.29;;;1.27;;
68700;SDS011;55682;51.114;5.882;2023-08-07T10:45:53;1.27;;;1.24;;
68700;SDS011;55682;51.114;5.882;2023-08-07T10:48:20;1.38;;;1.34;;
68700;SDS011;55682;51.114;5.882;2023-08-07T10:53:41;1.39;;;1.34;;
68700;SDS011;55682;51.114;5.882;2023-08-07T10:58:54;1.34;;;1.30;;
68700;SDS011;55682;51.114;5.882;2023-08-07T11:03:52;1.42;;;1.39;;
68700;SDS011;55682;51.114;5.882;2023-08-07T11:06:30;1.46;;;1.41;;
68700;SDS011;55682;51.114;5.882;2023-08-07T11:08:57;1.59;;;1.51;;
68700;SDS011;55682;51.114;5.882;2023-08-07T11:11:23;1.60;;;1.51;;
68700;SDS011;55682;51.114;5.882;2023-08-07T11:13:49;1.47;;;1.39;;
68700;SDS011;55682;51.114;5.882;2023-08-07T11:16:16;1.41;;;1.32;;
68700;SDS011;55682;51.114;5.882;2023-08-07T11:18:43;1.59;;;1.49;;
68700;SDS011;55682;51.114;5.882;2023-08-07T11:21:09;1.40;;;1.33;;
68700;SDS011;55682;51.114;5.882;2023-08-07T11:23:39;1.51;;;1.44;;
68700;SDS011;55682;51.114;5.882;2023-08-07T11:26:06;1.58;;;1.53;;
68700;SDS011;55682;51.114;5.882;2023-08-07T11:28:33;1.68;;;1.62;;
68700;SDS011;55682;51.114;5.882;2023-08-07T11:30:59;1.54;;;1.49;;
68700;SDS011;55682;51.114;5.882;2023-08-07T11:33:26;1.73;;;1.68;;
68700;SDS011;55682;51.114;5.882;2023-08-07T11:35:53;1.46;;;1.43;;
68700;SDS011;55682;51.114;5.882;2023-08-07T11:40:57;1.55;;;1.52;;
68700;SDS011;55682;51.114;5.882;2023-08-07T11:43:26;1.48;;;1.47;;
68700;SDS011;55682;51.114;5.882;2023-08-07T11:45:53;1.61;;;1.60;;
68700;SDS011;55682;51.114;5.882;2023-08-07T11:48:19;1.49;;;1.45;;
68700;SDS011;55682;51.114;5.882;2023-08-07T11:50:45;1.51;;;1.44;;
68700;SDS011;55682;51.114;5.882;2023-08-07T11:53:10;1.46;;;1.40;;
68700;SDS011;55682;51.114;5.882;2023-08-07T11:55:36;1.50;;;1.45;;
68700;SDS011;55682;51.114;5.882;2023-08-07T11:58:03;1.34;;;1.29;;
68700;SDS011;55682;51.114;5.882;2023-08-07T12:00:28;1.51;;;1.47;;
68700;SDS011;55682;51.114;5.882;2023-08-07T12:02:54;1.50;;;1.46;;
68700;SDS011;55682;51.114;5.882;2023-08-07T12:05:20;1.50;;;1.47;;
68700;SDS011;55682;51.114;5.882;2023-08-07T12:07:47;1.57;;;1.52;;
68700;SDS011;55682;51.114;5.882;2023-08-07T12:10:14;1.56;;;1.51;;
68700;SDS011;55682;51.114;5.882;2023-08-07T12:12:40;1.60;;;1.56;;
68700;SDS011;55682;51.114;5.882;2023-08-07T12:15:08;1.51;;;1.48;;
68700;SDS011;55682;51.114;5.882;2023-08-07T12:17:37;1.56;;;1.54;;
68700;SDS011;55682;51.114;5.882;2023-08-07T12:20:03;1.58;;;1.56;;
68700;SDS011;55682;51.114;5.882;2023-08-07T12:22:35;1.59;;;1.57;;
68700;SDS011;55682;51.114;5.882;2023-08-07T12:25:02;1.65;;;1.63;;
68700;SDS011;55682;51.114;5.882;2023-08-07T12:27:28;1.65;;;1.63;;
68700;SDS011;55682;51.114;5.882;2023-08-07T12:29:54;1.66;;;1.65;;
68700;SDS011;55682;51.114;5.882;2023-08-07T12:32:19;1.64;;;1.64;;
68700;SDS011;55682;51.114;5.882;2023-08-07T12:34:45;1.64;;;1.61;;
68700;SDS011;55682;51.114;5.882;2023-08-07T12:37:11;1.41;;;1.37;;
68700;SDS011;55682;51.114;5.882;2023-08-07T12:39:36;1.50;;;1.46;;
68700;SDS011;55682;51.114;5.882;2023-08-07T12:42:02;1.64;;;1.62;;
68700;SDS011;55682;51.114;5.882;2023-08-07T12:44:30;1.52;;;1.51;;
68700;SDS011;55682;51.114;5.882;2023-08-07T12:46:56;1.56;;;1.53;;
68700;SDS011;55682;51.114;5.882;2023-08-07T12:49:21;1.52;;;1.52;;
68700;SDS011;55682;51.114;5.882;2023-08-07T12:51:49;1.39;;;1.39;;
68700;SDS011;55682;51.114;5.882;2023-08-07T12:54:14;1.28;;;1.27;;
68700;SDS011;55682;51.114;5.882;2023-08-07T12:56:40;1.50;;;1.50;;
68700;SDS011;55682;51.114;5.882;2023-08-07T12:59:05;1.69;;;1.69;;
68700;SDS011;55682;51.114;5.882;2023-08-07T13:01:32;1.61;;;1.60;;
68700;SDS011;55682;51.114;5.882;2023-08-07T13:03:58;1.66;;;1.65;;
68700;SDS011;55682;51.114;5.882;2023-08-07T13:06:23;1.45;;;1.45;;
68700;SDS011;55682;51.114;5.882;2023-08-07T13:08:49;1.43;;;1.43;;
68700;SDS011;55682;51.114;5.882;2023-08-07T13:11:14;1.67;;;1.66;;
68700;SDS011;55682;51.114;5.882;2023-08-07T13:13:40;1.55;;;1.54;;
68700;SDS011;55682;51.114;5.882;2023-08-07T13:16:06;1.51;;;1.49;;
68700;SDS011;55682;51.114;5.882;2023-08-07T13:18:32;1.69;;;1.67;;
68700;SDS011;55682;51.114;5.882;2023-08-07T13:20:58;1.74;;;1.72;;
68700;SDS011;55682;51.114;5.882;2023-08-07T13:23:23;1.54;;;1.53;;
68700;SDS011;55682;51.114;5.882;2023-08-07T13:25:49;1.54;;;1.54;;
68700;SDS011;55682;51.114;5.882;2023-08-07T13:28:15;1.49;;;1.49;;
68700;SDS011;55682;51.114;5.882;2023-08-07T13:30:41;1.49;;;1.49;;
68700;SDS011;55682;51.114;5.882;2023-08-07T13:33:07;1.66;;;1.66;;
68700;SDS011;55682;51.114;5.882;2023-08-07T13:35:32;1.45;;;1.45;;
68700;SDS011;55682;51.114;5.882;2023-08-07T13:37:58;1.50;;;1.50;;
68700;SDS011;55682;51.114;5.882;2023-08-07T13:40:24;1.31;;;1.31;;
68700;SDS011;55682;51.114;5.882;2023-08-07T13:42:50;1.58;;;1.58;;
68700;SDS011;55682;51.114;5.882;2023-08-07T13:45:15;1.55;;;1.55;;
68700;SDS011;55682;51.114;5.882;2023-08-07T13:47:41;1.39;;;1.39;;
68700;SDS011;55682;51.114;5.882;2023-08-07T13:50:07;1.43;;;1.43;;
68700;SDS011;55682;51.114;5.882;2023-08-07T13:52:35;1.40;;;1.40;;
68700;SDS011;55682;51.114;5.882;2023-08-07T13:55:01;1.49;;;1.49;;
68700;SDS011;55682;51.114;5.882;2023-08-07T13:57:26;1.35;;;1.35;;
68700;SDS011;55682;51.114;5.882;2023-08-07T13:59:52;1.21;;;1.21;;
68700;SDS011;55682;51.114;5.882;2023-08-07T14:02:19;1.15;;;1.15;;
68700;SDS011;55682;51.114;5.882;2023-08-07T14:04:45;1.10;;;1.10;;
68700;SDS011;55682;51.114;5.882;2023-08-07T14:07:11;1.22;;;1.22;;
68700;SDS011;55682;51.114;5.882;2023-08-07T14:09:37;1.36;;;1.36;;
68700;SDS011;55682;51.114;5.882;2023-08-07T14:12:03;1.28;;;1.28;;
68700;SDS011;55682;51.114;5.882;2023-08-07T14:14:29;1.20;;;1.20;;
68700;SDS011;55682;51.114;5.882;2023-08-07T14:16:55;1.06;;;1.06;;
68700;SDS011;55682;51.114;5.882;2023-08-07T14:19:23;1.16;;;1.16;;
68700;SDS011;55682;51.114;5.882;2023-08-07T14:21:49;1.17;;;1.17;;
68700;SDS011;55682;51.114;5.882;2023-08-07T14:24:15;1.11;;;1.11;;
68700;SDS011;55682;51.114;5.882;2023-08-07T14:26:42;1.27;;;1.27;;
68700;SDS011;55682;51.114;5.882;2023-08-07T14:29:08;1.20;;;1.20;;
68700;SDS011;55682;51.114;5.882;2023-08-07T14:31:34;1.16;;;1.16;;
68700;SDS011;55682;51.114;5.882;2023-08-07T14:33:59;1.08;;;1.08;;
68700;SDS011;55682;51.114;5.882;2023-08-07T14:36:25;1.20;;;1.20;;
68700;SDS011;55682;51.114;5.882;2023-08-07T14:38:51;1.10;;;1.10;;
68700;SDS011;55682;51.114;5.882;2023-08-07T14:41:17;1.05;;;1.05;;
68700;SDS011;55682;51.114;5.882;2023-08-07T14:43:44;1.00;;;1.00;;
68700;SDS011;55682;51.114;5.882;2023-08-07T14:46:09;0.85;;;0.85;;
68700;SDS011;55682;51.114;5.882;2023-08-07T14:48:35;0.80;;;0.80;;
68700;SDS011;55682;51.114;5.882;2023-08-07T14:51:01;0.94;;;0.94;;
68700;SDS011;55682;51.114;5.882;2023-08-07T14:53:26;0.91;;;0.91;;
68700;SDS011;55682;51.114;5.882;2023-08-07T14:55:52;0.80;;;0.80;;
68700;SDS011;55682;51.114;5.882;2023-08-07T14:58:18;0.91;;;0.91;;
68700;SDS011;55682;51.114;5.882;2023-08-07T15:00:44;0.98;;;0.98;;
68700;SDS011;55682;51.114;5.882;2023-08-07T15:03:10;0.86;;;0.86;;
68700;SDS011;55682;51.114;5.882;2023-08-07T15:05:36;0.95;;;0.95;;
68700;SDS011;55682;51.114;5.882;2023-08-07T15:08:02;0.92;;;0.92;;
68700;SDS011;55682;51.114;5.882;2023-08-07T15:10:28;1.09;;;1.09;;